Time;durP1;ratioP1;P1;durP2;ratioP2;P2;SDS_P1;SDS_P2;PMS_P1;PMS_P2;Temp;Humidity;BMP_temperature;BMP_pressure;BME280_temperature;BME280_humidity;BME280_pressure;Samples;Min_cycle;Max_cycle;Signal;HPM_P1;HPM_P2
2022/07/09 00:02:16;;;;;;;4.85;3.25;;;19.40;70.50;;;;;;5052120;28;20044;-69
2022/07/09 00:04:42;;;;;;;4.03;3.08;;;19.40;70.60;;;;;;5050460;28;20531;-68
2022/07/09 00:07:07;;;;;;;4.07;3.17;;;19.40;70.70;;;;;;5050981;28;20029;-69
2022/07/09 00:09:33;;;;;;;5.03;3.30;;;19.30;70.80;;;;;;5034502;28;20060;-69
2022/07/09 00:11:58;;;;;;;6.57;3.75;;;19.30;70.90;;;;;;5032004;28;20040;-69
2022/07/09 00:14:24;;;;;;;4.28;3.15;;;19.20;71.20;;;;;;5031983;28;20487;-69
2022/07/09 00:16:49;;;;;;;4.40;3.17;;;19.20;71.30;;;;;;5032224;28;20057;-69
2022/07/09 00:19:15;;;;;;;4.50;3.10;;;19.10;71.50;;;;;;5037542;28;20499;-69
2022/07/09 00:21:40;;;;;;;4.35;3.42;;;19.10;71.60;;;;;;5050165;28;20039;-69
2022/07/09 00:24:06;;;;;;;4.05;3.40;;;19.10;71.70;;;;;;5034374;28;20472;-70
2022/07/09 00:26:32;;;;;;;4.68;3.40;;;19.10;71.80;;;;;;5051976;28;20013;-70
2022/07/09 00:28:57;;;;;;;3.92;3.28;;;19.00;71.80;;;;;;5049238;28;20054;-69
2022/07/09 00:31:23;;;;;;;5.90;3.70;;;19.00;71.90;;;;;;5031798;28;20033;-69
2022/07/09 00:33:49;;;;;;;4.25;3.40;;;19.00;72.10;;;;;;5031786;28;20037;-69
2022/07/09 00:36:14;;;;;;;5.82;3.58;;;19.00;72.10;;;;;;5033085;28;20018;-70
2022/07/09 00:38:40;;;;;;;4.30;3.13;;;18.90;72.10;;;;;;5038930;28;20060;-70
2022/07/09 00:41:05;;;;;;;3.38;3.08;;;19.00;72.20;;;;;;5050860;28;20021;-70
2022/07/09 00:43:31;;;;;;;4.35;3.60;;;19.00;72.20;;;;;;5051678;28;20036;-70
2022/07/09 00:45:56;;;;;;;3.30;2.75;;;18.90;72.20;;;;;;5034021;28;20027;-70
2022/07/09 00:48:22;;;;;;;4.45;3.10;;;18.90;72.70;;;;;;5030142;28;20026;-70
2022/07/09 00:50:48;;;;;;;3.38;2.80;;;18.90;72.10;;;;;;5048234;28;20487;-69
2022/07/09 00:53:17;;;;;;;4.10;3.20;;;18.90;72.20;;;;;;5051095;28;20098;-69
2022/07/09 00:55:44;;;;;;;4.15;3.50;;;18.90;72.40;;;;;;5049711;28;20025;-69
2022/07/09 00:58:12;;;;;;;3.72;3.33;;;18.80;72.50;;;;;;5046987;28;20025;-70
2022/07/09 01:00:38;;;;;;;4.88;3.20;;;18.80;72.60;;;;;;5040524;28;20871;-69
2022/07/09 01:03:04;;;;;;;4.78;3.65;;;18.70;72.60;;;;;;5044673;28;20025;-68
2022/07/09 01:05:35;;;;;;;4.95;3.65;;;18.70;72.80;;;;;;5029642;28;20032;-68
2022/07/09 01:08:03;;;;;;;4.07;3.65;;;18.70;72.90;;;;;;5032368;28;20030;-67
2022/07/09 01:10:30;;;;;;;4.82;3.40;;;18.70;73.10;;;;;;5030855;28;20433;-67
2022/07/09 01:12:55;;;;;;;5.03;3.17;;;18.60;73.10;;;;;;5046892;28;20025;-68
2022/07/09 01:15:21;;;;;;;4.97;3.45;;;18.60;73.10;;;;;;5050763;28;20392;-68
2022/07/09 01:17:46;;;;;;;4.38;3.60;;;18.60;73.20;;;;;;5043110;28;20025;-68
2022/07/09 01:20:12;;;;;;;4.63;3.90;;;18.60;73.30;;;;;;5030853;28;20590;-68
2022/07/09 01:22:38;;;;;;;4.22;3.60;;;18.60;73.40;;;;;;5043482;28;20392;-68
2022/07/09 01:25:09;;;;;;;4.35;3.50;;;18.50;73.50;;;;;;5050841;28;20021;-69
2022/07/09 01:27:35;;;;;;;4.13;3.35;;;18.50;73.60;;;;;;5031951;28;20387;-70
2022/07/09 01:30:01;;;;;;;3.97;2.85;;;18.50;73.70;;;;;;5030781;28;20104;-70
2022/07/09 01:32:27;;;;;;;5.45;3.85;;;18.40;73.70;;;;;;5041701;28;20160;-70
2022/07/09 01:34:52;;;;;;;4.60;3.40;;;18.40;74.10;;;;;;5050401;28;20475;-70
2022/07/09 01:37:18;;;;;;;4.20;3.53;;;18.40;74.10;;;;;;5050553;28;20036;-70
2022/07/09 01:39:50;;;;;;;3.90;3.50;;;18.40;74.10;;;;;;5048702;28;20029;-70
2022/07/09 01:42:19;;;;;;;6.00;3.67;;;18.40;74.10;;;;;;5050262;28;20102;-69
2022/07/09 01:44:46;;;;;;;5.13;3.67;;;18.30;74.10;;;;;;5037268;28;20052;-71
2022/07/09 01:47:14;;;;;;;4.55;3.55;;;18.40;74.20;;;;;;5029743;28;20024;-70
2022/07/09 01:49:40;;;;;;;4.82;3.58;;;18.40;74.20;;;;;;5047740;28;20128;-68
2022/07/09 01:52:06;;;;;;;5.82;3.80;;;18.40;74.20;;;;;;5043405;28;20492;-69
2022/07/09 01:54:31;;;;;;;4.03;3.30;;;18.30;74.10;;;;;;5030529;28;20032;-69
2022/07/09 01:56:57;;;;;;;5.10;3.63;;;18.30;74.10;;;;;;5043131;28;20029;-70
2022/07/09 01:59:22;;;;;;;5.05;3.83;;;18.40;74.10;;;;;;5050277;28;20143;-70
2022/07/09 02:01:48;;;;;;;4.28;3.30;;;18.40;74.00;;;;;;5042347;28;20025;-69
2022/07/09 02:04:13;;;;;;;4.55;3.53;;;18.40;73.90;;;;;;5049155;28;20070;-69
2022/07/09 02:06:39;;;;;;;3.70;3.15;;;18.40;73.90;;;;;;5050458;28;20479;-69
2022/07/09 02:09:04;;;;;;;5.07;3.75;;;18.40;73.80;;;;;;5050227;28;20036;-69
2022/07/09 02:11:30;;;;;;;5.03;3.70;;;18.30;73.80;;;;;;5049106;28;20028;-70
2022/07/09 02:13:55;;;;;;;6.05;4.15;;;18.30;74.00;;;;;;5050362;28;20474;-69
2022/07/09 02:16:21;;;;;;;5.03;4.00;;;18.20;74.30;;;;;;5037529;28;20044;-70
2022/07/09 02:18:46;;;;;;;5.47;3.90;;;18.20;74.40;;;;;;5030428;28;20040;-69
2022/07/09 02:21:12;;;;;;;4.15;3.63;;;18.20;74.60;;;;;;5031011;28;20017;-70
2022/07/09 02:23:37;;;;;;;4.22;3.55;;;18.10;74.60;;;;;;5030115;28;20014;-70
2022/07/09 02:26:03;;;;;;;4.03;3.33;;;18.10;74.70;;;;;;5029988;28;20052;-70
2022/07/09 02:28:29;;;;;;;4.95;3.47;;;18.10;74.60;;;;;;5030200;28;20083;-69
2022/07/09 02:30:54;;;;;;;5.13;4.13;;;18.10;74.70;;;;;;5046732;28;20021;-69
2022/07/09 02:33:21;;;;;;;4.43;3.40;;;18.10;74.90;;;;;;5053754;28;20035;-69
2022/07/09 02:35:46;;;;;;;7.40;4.60;;;18.00;74.90;;;;;;5054066;28;20013;-68
2022/07/09 02:38:12;;;;;;;4.57;3.47;;;18.10;75.00;;;;;;5051812;28;20045;-69
2022/07/09 02:40:37;;;;;;;4.72;3.75;;;18.10;75.10;;;;;;5051446;28;20113;-67
2022/07/09 02:43:03;;;;;;;4.50;3.38;;;18.00;75.10;;;;;;5053291;28;20095;-69
2022/07/09 02:45:28;;;;;;;6.18;3.72;;;18.00;75.20;;;;;;5036388;28;20519;-68
2022/07/09 02:47:54;;;;;;;5.40;4.10;;;18.00;75.30;;;;;;5033631;28;20029;-67
2022/07/09 02:50:20;;;;;;;6.18;4.00;;;17.90;75.40;;;;;;5032358;28;20028;-67
2022/07/09 02:52:45;;;;;;;5.80;4.60;;;17.90;75.50;;;;;;5034619;28;20025;-67
2022/07/09 02:55:11;;;;;;;5.90;4.60;;;17.90;75.70;;;;;;5053138;28;20476;-69
2022/07/09 02:57:36;;;;;;;5.20;3.92;;;17.90;75.80;;;;;;5052240;28;20423;-68
2022/07/09 03:00:03;;;;;;;7.20;4.63;;;17.80;75.80;;;;;;5053548;28;20025;-69
2022/07/09 03:02:29;;;;;;;6.43;4.60;;;17.80;76.00;;;;;;5051637;28;20024;-69
2022/07/09 03:04:54;;;;;;;5.85;4.50;;;17.80;76.20;;;;;;5053497;28;20025;-68
2022/07/09 03:07:20;;;;;;;5.50;4.40;;;17.70;76.30;;;;;;5052125;28;20037;-69
2022/07/09 03:09:45;;;;;;;6.25;4.75;;;17.60;76.30;;;;;;5035345;28;20108;-69
2022/07/09 03:12:11;;;;;;;5.25;4.60;;;17.60;76.50;;;;;;5050156;28;20387;-69
2022/07/09 03:14:36;;;;;;;5.38;4.10;;;17.50;76.50;;;;;;5053086;28;20048;-69
2022/07/09 03:17:02;;;;;;;5.50;4.45;;;17.50;76.50;;;;;;5034960;28;20030;-69
2022/07/09 03:19:28;;;;;;;6.43;4.90;;;17.60;76.60;;;;;;5033371;28;20030;-70
2022/07/09 03:21:53;;;;;;;5.57;4.35;;;17.50;76.70;;;;;;5034294;28;20032;-70
2022/07/09 03:24:19;;;;;;;5.97;4.78;;;17.60;76.70;;;;;;5033011;28;20460;-70
2022/07/09 03:26:44;;;;;;;7.28;5.00;;;17.60;76.70;;;;;;5033195;28;20103;-68
2022/07/09 03:29:10;;;;;;;6.47;4.35;;;17.60;76.70;;;;;;5033721;28;20037;-69
2022/07/09 03:31:35;;;;;;;5.18;4.10;;;17.60;76.80;;;;;;5052769;28;20025;-69
2022/07/09 03:34:01;;;;;;;5.90;5.20;;;17.60;76.70;;;;;;5051304;28;20106;-68
2022/07/09 03:36:27;;;;;;;5.88;4.63;;;17.60;76.80;;;;;;5052639;28;20036;-68
2022/07/09 03:38:52;;;;;;;8.25;5.22;;;17.60;76.90;;;;;;5052914;28;20586;-68
2022/07/09 03:41:18;;;;;;;6.70;4.80;;;17.60;76.80;;;;;;5034000;28;20427;-69
2022/07/09 03:43:43;;;;;;;6.95;4.57;;;17.60;76.90;;;;;;5036156;28;20518;-69
2022/07/09 03:46:09;;;;;;;5.80;5.03;;;17.60;76.80;;;;;;5051953;28;20041;-68
2022/07/09 03:48:35;;;;;;;6.55;4.95;;;17.70;76.80;;;;;;5051388;28;20049;-69
2022/07/09 03:51:01;;;;;;;6.47;5.57;;;17.70;76.90;;;;;;5036479;28;20583;-68
2022/07/09 03:53:26;;;;;;;5.90;4.93;;;17.70;77.00;;;;;;5033601;28;20032;-69
2022/07/09 03:55:52;;;;;;;8.15;4.95;;;17.70;77.20;;;;;;5032490;28;20104;-69
2022/07/09 03:58:17;;;;;;;6.88;5.78;;;17.70;77.30;;;;;;5032454;28;20017;-69
2022/07/09 04:00:43;;;;;;;6.80;5.50;;;17.70;77.40;;;;;;5037392;28;20057;-70
2022/07/09 04:03:08;;;;;;;6.80;5.22;;;17.70;77.40;;;;;;5032659;28;20025;-70
2022/07/09 04:05:34;;;;;;;6.95;5.60;;;17.60;77.40;;;;;;5033649;28;20591;-69
2022/07/09 04:08:00;;;;;;;7.13;5.72;;;17.60;77.60;;;;;;5032444;28;20033;-69
2022/07/09 04:10:25;;;;;;;5.82;4.97;;;17.60;77.70;;;;;;5033528;28;20025;-70
2022/07/09 04:12:51;;;;;;;7.15;4.80;;;17.60;77.60;;;;;;5032032;28;20038;-69
2022/07/09 04:15:16;;;;;;;7.53;4.78;;;17.60;77.50;;;;;;5038957;28;20029;-69
2022/07/09 04:17:42;;;;;;;6.90;5.75;;;17.70;77.60;;;;;;5051910;28;20025;-69
2022/07/09 04:20:08;;;;;;;7.63;5.32;;;17.70;77.70;;;;;;5051419;28;20070;-70
2022/07/09 04:22:34;;;;;;;6.72;5.28;;;17.70;77.80;;;;;;5050661;28;20028;-68
2022/07/09 04:24:59;;;;;;;7.85;6.00;;;17.70;77.90;;;;;;5050385;28;20021;-68
2022/07/09 04:27:25;;;;;;;7.10;5.57;;;17.70;78.00;;;;;;5050756;28;20365;-68
2022/07/09 04:29:50;;;;;;;6.95;5.38;;;17.70;78.10;;;;;;5046210;28;20176;-69
2022/07/09 04:32:16;;;;;;;8.18;5.85;;;17.80;78.10;;;;;;5032228;28;20018;-69
2022/07/09 04:34:42;;;;;;;6.20;4.65;;;17.80;78.00;;;;;;5031816;28;20426;-69
2022/07/09 04:37:07;;;;;;;9.68;5.93;;;17.90;78.00;;;;;;5033093;28;20064;-68
2022/07/09 04:39:33;;;;;;;7.25;5.45;;;17.90;78.00;;;;;;5042499;28;20029;-68
2022/07/09 04:41:58;;;;;;;7.13;5.05;;;17.90;78.00;;;;;;5051501;28;20021;-68
2022/07/09 04:44:24;;;;;;;6.47;5.00;;;17.90;78.00;;;;;;5051528;28;20391;-68
2022/07/09 04:46:49;;;;;;;6.97;5.05;;;17.90;78.00;;;;;;5047871;28;20025;-68
2022/07/09 04:49:15;;;;;;;6.97;5.22;;;17.90;77.90;;;;;;5031771;28;20638;-68
2022/07/09 04:51:40;;;;;;;5.97;4.90;;;18.00;77.90;;;;;;5050998;28;20072;-68
2022/07/09 04:54:06;;;;;;;5.45;4.40;;;18.00;77.80;;;;;;5050551;28;20037;-69
2022/07/09 04:56:31;;;;;;;7.25;4.82;;;18.10;77.70;;;;;;5051418;28;20028;-69
2022/07/09 04:58:59;;;;;;;6.57;4.40;;;18.10;77.60;;;;;;5049386;28;20028;-69
2022/07/09 05:01:24;;;;;;;6.15;4.68;;;18.20;77.50;;;;;;5033844;28;20026;-68
2022/07/09 05:03:50;;;;;;;6.00;4.25;;;18.30;77.40;;;;;;5031029;28;20032;-68
2022/07/09 05:06:17;;;;;;;5.90;4.43;;;18.70;76.70;;;;;;5031204;28;20026;-68
2022/07/09 05:08:43;;;;;;;5.70;4.03;;;18.90;75.90;;;;;;5032199;28;20100;-68
2022/07/09 05:11:10;;;;;;;7.25;4.85;;;19.20;75.20;;;;;;5045338;28;20230;-68
2022/07/09 05:13:36;;;;;;;5.82;5.07;;;19.40;74.50;;;;;;5050548;28;20033;-68
2022/07/09 05:16:02;;;;;;;6.45;4.78;;;19.60;74.10;;;;;;5050443;28;20021;-68
2022/07/09 05:18:30;;;;;;;6.03;4.50;;;19.90;73.50;;;;;;5050234;28;20032;-68
2022/07/09 05:20:56;;;;;;;6.75;4.78;;;20.10;72.90;;;;;;5054897;28;20005;-68
2022/07/09 05:23:22;;;;;;;6.57;4.20;;;20.30;72.50;;;;;;5046455;28;20534;-69
2022/07/09 05:25:47;;;;;;;5.60;3.90;;;20.30;72.20;;;;;;5036704;28;20017;-68
2022/07/09 05:28:13;;;;;;;5.60;3.97;;;20.30;72.30;;;;;;5033033;28;20033;-68
2022/07/09 05:30:38;;;;;;;5.20;4.30;;;20.60;71.90;;;;;;5042724;28;20053;-69
2022/07/09 05:33:05;;;;;;;5.97;4.65;;;20.70;71.60;;;;;;5032935;28;20071;-69
2022/07/09 05:35:30;;;;;;;6.90;4.60;;;20.60;71.70;;;;;;5031742;28;20492;-69
2022/07/09 05:37:56;;;;;;;5.30;4.30;;;20.70;71.80;;;;;;5030881;28;20030;-68
2022/07/09 05:40:22;;;;;;;6.80;4.70;;;21.10;70.90;;;;;;5043624;28;20029;-68
2022/07/09 05:42:47;;;;;;;6.22;4.85;;;21.50;70.00;;;;;;5050274;28;20086;-68
2022/07/09 05:45:13;;;;;;;6.18;4.00;;;21.70;69.30;;;;;;5050462;28;20033;-68
2022/07/09 05:47:38;;;;;;;6.50;4.75;;;21.90;68.80;;;;;;5050562;28;20075;-68
2022/07/09 05:50:04;;;;;;;4.85;4.00;;;21.80;68.80;;;;;;5050610;28;20364;-68
2022/07/09 05:52:30;;;;;;;6.30;4.63;;;21.70;69.20;;;;;;5042095;28;20021;-68
2022/07/09 05:54:55;;;;;;;5.93;4.25;;;22.00;68.80;;;;;;5050087;28;20032;-68
2022/07/09 05:57:21;;;;;;;5.65;3.85;;;22.30;68.40;;;;;;5047704;28;20044;-67
2022/07/09 05:59:47;;;;;;;5.00;3.53;;;22.70;67.50;;;;;;5050729;28;20040;-68
2022/07/09 06:02:12;;;;;;;5.20;3.60;;;22.70;67.00;;;;;;5042100;28;20021;-69
2022/07/09 06:04:38;;;;;;;4.90;3.53;;;22.50;67.30;;;;;;5051311;28;20017;-70
2022/07/09 06:07:04;;;;;;;5.82;3.35;;;22.40;67.70;;;;;;5046849;28;20063;-69
2022/07/09 06:09:29;;;;;;;3.45;2.78;;;22.10;68.20;;;;;;5047583;28;20022;-70
2022/07/09 06:11:55;;;;;;;4.35;2.60;;;22.00;68.80;;;;;;5042114;28;20028;-70
2022/07/09 06:14:20;;;;;;;3.28;2.30;;;21.80;69.10;;;;;;5048227;28;20034;-69
2022/07/09 06:16:46;;;;;;;5.07;2.65;;;21.70;69.40;;;;;;5049429;28;20017;-69
2022/07/09 06:19:13;;;;;;;3.50;2.50;;;21.50;69.60;;;;;;5044223;28;20025;-69
2022/07/09 06:21:39;;;;;;;2.65;2.40;;;21.40;69.80;;;;;;5046417;28;20037;-69
2022/07/09 06:24:05;;;;;;;4.00;3.00;;;21.40;70.00;;;;;;5050229;28;20021;-70
2022/07/09 06:26:31;;;;;;;3.72;2.60;;;21.50;69.70;;;;;;5050213;28;20535;-69
2022/07/09 06:28:57;;;;;;;3.13;2.70;;;21.50;69.70;;;;;;5042324;28;20207;-70
2022/07/09 06:31:22;;;;;;;2.60;2.13;;;21.60;69.40;;;;;;5041936;28;20395;-69
2022/07/09 06:33:48;;;;;;;3.20;1.80;;;21.50;69.40;;;;;;5046092;28;20030;-70
2022/07/09 06:36:14;;;;;;;2.63;2.00;;;21.60;69.30;;;;;;5035567;28;20025;-69
2022/07/09 06:41:24;;;;;;;2.38;2.00;;;22.10;68.60;;;;;;5041912;28;20166;-70
2022/07/09 06:43:49;;;;;;;1.60;1.50;;;22.20;67.70;;;;;;5048392;28;20137;-70
2022/07/09 06:46:15;;;;;;;1.88;1.40;;;22.20;67.50;;;;;;5045539;28;20032;-70
2022/07/09 06:48:40;;;;;;;1.90;1.60;;;22.20;67.30;;;;;;5041333;28;20033;-70
2022/07/09 06:51:06;;;;;;;2.33;1.73;;;22.20;67.00;;;;;;5044301;28;20029;-69
2022/07/09 06:53:32;;;;;;;3.33;2.00;;;22.30;67.00;;;;;;5036955;28;20026;-70
2022/07/09 06:55:57;;;;;;;2.47;1.85;;;22.10;66.90;;;;;;5035285;28;20092;-69
2022/07/09 06:58:23;;;;;;;2.75;1.80;;;22.10;67.20;;;;;;5048005;28;20502;-70
2022/07/09 07:00:48;;;;;;;2.22;2.00;;;22.10;67.30;;;;;;5042318;28;20514;-70
2022/07/09 07:03:15;;;;;;;2.38;1.90;;;22.00;67.30;;;;;;5050605;28;20115;-70
2022/07/09 07:05:40;;;;;;;3.53;2.30;;;22.00;67.50;;;;;;5049965;28;20012;-69
2022/07/09 07:08:06;;;;;;;3.15;2.00;;;22.10;67.40;;;;;;5045606;28;20079;-69
2022/07/09 07:10:32;;;;;;;2.88;1.95;;;22.20;67.20;;;;;;5040673;28;20041;-69
2022/07/09 07:12:57;;;;;;;3.10;1.90;;;22.40;67.00;;;;;;5044905;28;20076;-69
2022/07/09 07:15:23;;;;;;;3.33;2.30;;;22.60;66.50;;;;;;5030096;28;20061;-70
2022/07/09 07:17:48;;;;;;;3.05;2.10;;;22.70;66.10;;;;;;5043106;28;20036;-70
2022/07/09 07:20:14;;;;;;;2.58;2.00;;;22.80;65.90;;;;;;5050932;28;20101;-69
2022/07/09 07:22:40;;;;;;;3.20;2.03;;;22.90;65.80;;;;;;5048594;28;20029;-69
2022/07/09 07:25:05;;;;;;;3.65;2.10;;;22.90;65.60;;;;;;5036511;28;20029;-69
2022/07/09 07:27:31;;;;;;;3.22;2.05;;;23.10;65.40;;;;;;5032868;28;20079;-69
2022/07/09 07:29:57;;;;;;;3.90;2.13;;;23.30;64.90;;;;;;5043057;28;20017;-69
2022/07/09 07:32:22;;;;;;;3.28;2.03;;;23.40;64.70;;;;;;5046690;28;20033;-69
2022/07/09 07:34:48;;;;;;;4.10;2.40;;;23.70;64.30;;;;;;5044649;28;20024;-69
2022/07/09 07:37:13;;;;;;;4.25;2.22;;;23.80;63.60;;;;;;5032502;28;20028;-69
2022/07/09 07:39:39;;;;;;;3.15;1.90;;;23.80;63.10;;;;;;5033567;28;20077;-69
2022/07/09 07:42:07;;;;;;;3.55;2.15;;;23.90;63.20;;;;;;5045596;28;20055;-69
2022/07/09 07:44:32;;;;;;;2.58;1.58;;;24.00;62.90;;;;;;5050663;28;20025;-69
2022/07/09 07:46:58;;;;;;;1.88;1.60;;;24.20;62.70;;;;;;5044852;28;20021;-69
2022/07/09 07:49:24;;;;;;;2.10;1.67;;;24.30;62.30;;;;;;5045816;28;20024;-67
2022/07/09 07:51:49;;;;;;;3.15;1.95;;;24.40;62.00;;;;;;5052303;28;20083;-68
2022/07/09 07:54:15;;;;;;;4.20;2.20;;;24.40;61.90;;;;;;5049586;28;20025;-68
2022/07/09 07:56:41;;;;;;;3.78;2.30;;;24.50;61.60;;;;;;5050532;28;20036;-69
2022/07/09 07:59:06;;;;;;;4.15;2.60;;;24.50;61.70;;;;;;5042167;28;20057;-69
2022/07/09 08:01:32;;;;;;;2.00;1.80;;;24.70;61.30;;;;;;5050857;28;20051;-69
2022/07/09 08:03:57;;;;;;;2.70;2.20;;;24.70;61.10;;;;;;5054973;28;20126;-69
2022/07/09 08:06:23;;;;;;;2.17;1.95;;;24.60;60.90;;;;;;5050381;28;20349;-68
2022/07/09 08:08:49;;;;;;;3.67;2.00;;;24.70;61.00;;;;;;5042520;28;20029;-68
2022/07/09 08:11:14;;;;;;;2.55;1.70;;;24.90;60.80;;;;;;5049753;28;20150;-68
2022/07/09 08:13:40;;;;;;;2.97;2.00;;;25.00;60.60;;;;;;5044121;28;20060;-68
2022/07/09 08:16:06;;;;;;;2.47;1.63;;;25.00;60.20;;;;;;5047209;28;20104;-68
2022/07/09 08:18:32;;;;;;;2.60;2.00;;;25.00;60.00;;;;;;5047227;28;20495;-68
2022/07/09 08:20:58;;;;;;;2.47;1.40;;;25.00;59.90;;;;;;5048292;28;20048;-68
2022/07/09 08:23:23;;;;;;;2.35;1.60;;;25.10;59.90;;;;;;5051237;28;20052;-68
2022/07/09 08:25:49;;;;;;;2.03;1.45;;;25.10;59.70;;;;;;5049469;28;20020;-68
2022/07/09 08:28:16;;;;;;;5.80;1.60;;;25.10;59.50;;;;;;5049229;28;20107;-69
2022/07/09 08:30:41;;;;;;;2.58;1.80;;;25.10;59.40;;;;;;5053416;28;20032;-68
2022/07/09 08:33:07;;;;;;;1.95;1.60;;;25.10;59.40;;;;;;5048894;28;20411;-69
2022/07/09 08:35:33;;;;;;;2.38;1.70;;;25.10;59.30;;;;;;5047233;28;20419;-69
2022/07/09 08:37:59;;;;;;;3.25;1.83;;;25.20;59.20;;;;;;5050350;28;20025;-69
2022/07/09 08:40:25;;;;;;;2.33;1.70;;;25.20;59.20;;;;;;5056568;28;20032;-68
2022/07/09 08:42:52;;;;;;;2.40;1.80;;;25.20;59.00;;;;;;5052259;28;20058;-68
2022/07/09 08:45:19;;;;;;;5.22;3.00;;;25.20;58.70;;;;;;5048553;28;20106;-68
2022/07/09 08:47:45;;;;;;;2.97;1.92;;;25.30;58.40;;;;;;5049703;28;20021;-68
2022/07/09 08:50:11;;;;;;;2.72;1.90;;;25.30;58.40;;;;;;5049602;28;20024;-68
2022/07/09 08:52:39;;;;;;;2.53;1.77;;;25.30;58.20;;;;;;5049493;28;20016;-68
2022/07/09 08:55:07;;;;;;;2.88;1.60;;;25.20;58.40;;;;;;5046411;28;20036;-68
2022/07/09 08:57:33;;;;;;;2.45;1.90;;;25.10;58.60;;;;;;5051048;28;20536;-68
2022/07/09 09:00:01;;;;;;;2.90;2.00;;;25.00;58.60;;;;;;5047283;28;20376;-68
2022/07/09 09:02:35;;;;;;;3.60;2.00;;;24.90;58.80;;;;;;5044509;28;20097;-68
2022/07/09 09:05:05;;;;;;;3.33;1.90;;;24.80;59.00;;;;;;5042194;28;20606;-68
2022/07/09 09:07:30;;;;;;;1.83;1.50;;;24.80;59.20;;;;;;5045790;28;20020;-67
2022/07/09 09:09:56;;;;;;;3.45;1.65;;;24.70;59.50;;;;;;5047686;28;20017;-67
2022/07/09 09:12:28;;;;;;;3.85;3.25;;;24.60;59.80;;;;;;5039817;28;20501;-67
2022/07/09 09:14:53;;;;;;;;;;;24.50;59.90;;;;;;5047176;28;20048;-67
2022/07/09 09:17:19;;;;;;;5.10;4.20;;;24.30;59.90;;;;;;5045189;28;20045;-67
2022/07/09 09:19:44;;;;;;;4.25;3.50;;;24.30;60.40;;;;;;5047659;28;20028;-67
2022/07/09 09:22:14;;;;;;;3.90;2.97;;;24.20;60.60;;;;;;5047871;28;20399;-68
2022/07/09 09:24:42;;;;;;;4.05;3.65;;;24.30;60.80;;;;;;5050917;28;20021;-68
2022/07/09 09:27:07;;;;;;;5.53;3.72;;;24.40;60.70;;;;;;5046608;28;20028;-68
2022/07/09 09:29:37;;;;;;;6.38;4.93;;;24.50;60.70;;;;;;5043308;28;20732;-68
2022/07/09 09:32:10;;;;;;;5.68;4.53;;;24.40;60.40;;;;;;5047683;28;20040;-68
2022/07/09 09:34:37;;;;;;;4.25;3.65;;;24.30;60.70;;;;;;5045377;28;20552;-69
2022/07/09 09:37:02;;;;;;;4.72;4.13;;;24.30;60.90;;;;;;5046588;28;20032;-69
2022/07/09 09:39:29;;;;;;;6.05;4.00;;;24.20;60.90;;;;;;5045824;28;20033;-69
2022/07/09 09:42:02;;;;;;;5.63;4.50;;;24.10;61.20;;;;;;5047268;28;20091;-68
2022/07/09 09:44:31;;;;;;;5.75;3.80;;;24.20;61.40;;;;;;5046095;28;20039;-67
2022/07/09 09:46:57;;;;;;;5.40;3.58;;;24.20;61.40;;;;;;5044645;28;20079;-67
2022/07/09 09:49:24;;;;;;;4.57;3.65;;;24.20;61.40;;;;;;5042899;28;20031;-68
2022/07/09 09:51:55;;;;;;;5.60;3.63;;;24.20;61.30;;;;;;5043930;28;20049;-68
2022/07/09 09:54:21;;;;;;;;;;;24.30;61.00;;;;;;5042052;28;20039;-68
2022/07/09 09:56:48;;;;;;;3.75;3.20;;;24.30;60.90;;;;;;5046877;28;19979;-68
2022/07/09 09:59:15;;;;;;;5.57;3.58;;;24.40;60.80;;;;;;5042559;28;20116;-68
2022/07/09 10:01:42;;;;;;;3.92;3.50;;;24.20;60.90;;;;;;5045772;28;20032;-67
2022/07/09 10:04:10;;;;;;;3.40;2.95;;;24.10;61.20;;;;;;5042852;28;20113;-66
2022/07/09 10:06:36;;;;;;;5.93;3.60;;;24.00;61.30;;;;;;5042712;28;20128;-67
2022/07/09 10:09:07;;;;;;;4.38;3.38;;;24.00;61.50;;;;;;5039349;28;20032;-68
2022/07/09 10:11:46;;;;;;;4.75;3.20;;;23.90;61.70;;;;;;5041932;28;20033;-68
2022/07/09 10:14:39;;;;;;;3.53;2.50;;;23.80;61.80;;;;;;5042480;28;20029;-68
2022/07/09 10:17:15;;;;;;;2.80;2.50;;;23.80;62.00;;;;;;5038647;28;20037;-68
2022/07/09 10:20:04;;;;;;;2.72;1.80;;;23.70;61.90;;;;;;5044240;28;20163;-68
2022/07/09 10:22:44;;;;;;;2.63;1.65;;;23.70;62.00;;;;;;5044456;28;20075;-68
2022/07/09 10:25:22;;;;;;;2.10;1.50;;;23.70;61.60;;;;;;5047973;28;20045;-68
2022/07/09 10:27:48;;;;;;;2.45;2.00;;;23.70;61.40;;;;;;5048430;28;20072;-68
2022/07/09 10:30:31;;;;;;;2.95;2.05;;;23.60;61.10;;;;;;5046892;28;20021;-68
2022/07/09 10:33:11;;;;;;;3.20;1.98;;;23.60;61.00;;;;;;5050848;28;20047;-68
2022/07/09 10:35:45;;;;;;;2.58;1.40;;;23.70;60.80;;;;;;5046470;28;20491;-68
2022/07/09 10:38:12;;;;;;;1.50;1.40;;;23.90;60.60;;;;;;5048767;28;20037;-68
2022/07/09 10:40:56;;;;;;;3.30;1.58;;;24.00;59.80;;;;;;5048066;28;20100;-68
2022/07/09 10:43:37;;;;;;;3.92;1.55;;;24.10;59.30;;;;;;5050336;28;20103;-68
2022/07/09 10:46:10;;;;;;;1.77;1.15;;;24.30;59.00;;;;;;5046612;28;20036;-68
2022/07/09 10:48:36;;;;;;;1.73;1.20;;;24.30;58.50;;;;;;5051274;28;20553;-68
2022/07/09 10:51:01;;;;;;;1.20;1.10;;;24.30;58.30;;;;;;5047275;28;20021;-68
2022/07/09 10:53:29;;;;;;;1.70;1.10;;;24.40;57.90;;;;;;5053421;28;20036;-68
2022/07/09 10:55:55;;;;;;;1.30;1.00;;;24.50;57.60;;;;;;5049229;28;20053;-68
2022/07/09 10:58:23;;;;;;;1.20;1.00;;;24.60;57.10;;;;;;5051559;28;20056;-68
2022/07/09 11:00:59;;;;;;;1.80;1.30;;;24.60;56.70;;;;;;5051647;28;20104;-68
2022/07/09 11:03:29;;;;;;;2.88;1.30;;;24.60;56.00;;;;;;5051261;28;20025;-69
2022/07/09 11:05:55;;;;;;;1.77;1.20;;;24.60;56.00;;;;;;5050727;28;20032;-69
2022/07/09 11:08:21;;;;;;;2.05;1.20;;;24.60;55.90;;;;;;5052480;28;20595;-68
2022/07/09 11:10:47;;;;;;;1.30;1.10;;;24.70;55.60;;;;;;5049651;28;20025;-68
2022/07/09 11:13:13;;;;;;;2.38;1.00;;;24.60;55.80;;;;;;5051284;28;20032;-68
2022/07/09 11:15:38;;;;;;;1.50;1.00;;;24.70;56.10;;;;;;5049999;28;20025;-68
2022/07/09 11:18:11;;;;;;;2.63;1.27;;;24.90;55.60;;;;;;5054782;28;20031;-67
2022/07/09 11:20:45;;;;;;;2.50;1.08;;;25.00;55.00;;;;;;5051614;28;20032;-68
2022/07/09 11:23:16;;;;;;;0.80;0.80;;;25.00;54.60;;;;;;5056096;28;20036;-68
2022/07/09 11:25:43;;;;;;;1.13;0.95;;;25.30;54.30;;;;;;5047367;28;20036;-67
2022/07/09 11:28:17;;;;;;;1.75;0.90;;;25.30;53.20;;;;;;5050644;28;20387;-68
2022/07/09 11:30:43;;;;;;;1.27;0.80;;;25.20;52.50;;;;;;5051512;28;20029;-67
2022/07/09 11:33:12;;;;;;;1.10;0.80;;;25.30;52.50;;;;;;5051328;28;20023;-68
2022/07/09 11:35:37;;;;;;;1.45;0.90;;;25.40;52.20;;;;;;5052315;28;20487;-68
2022/07/09 11:38:06;;;;;;;1.33;0.80;;;25.50;51.60;;;;;;5050950;28;20080;-68
2022/07/09 11:40:32;;;;;;;1.45;0.75;;;25.50;51.20;;;;;;5054300;28;20029;-68
2022/07/09 11:42:58;;;;;;;1.30;0.75;;;25.60;51.30;;;;;;5050208;28;20114;-68
2022/07/09 11:45:28;;;;;;;1.20;0.93;;;25.60;51.00;;;;;;5053719;28;20111;-68
2022/07/09 11:48:10;;;;;;;3.42;0.80;;;25.60;50.90;;;;;;5051329;28;20029;-68
2022/07/09 11:50:43;;;;;;;1.27;0.80;;;25.70;50.70;;;;;;5051146;28;20029;-68
2022/07/09 11:53:22;;;;;;;1.70;0.93;;;25.70;50.60;;;;;;5054556;28;20392;-68
2022/07/09 11:56:04;;;;;;;1.25;0.80;;;25.70;50.10;;;;;;5049891;28;20044;-68
2022/07/09 11:58:30;;;;;;;0.90;0.60;;;25.80;49.90;;;;;;5046673;28;20171;-68
2022/07/09 12:00:59;;;;;;;1.25;0.60;;;26.10;50.00;;;;;;5055091;28;20100;-68
2022/07/09 12:03:26;;;;;;;0.88;0.70;;;26.30;49.50;;;;;;5049619;28;20029;-68
2022/07/09 12:05:52;;;;;;;1.20;0.50;;;26.60;49.20;;;;;;5047828;28;20112;-68
2022/07/09 12:08:30;;;;;;;0.63;0.52;;;26.70;49.10;;;;;;5049771;28;20118;-68
2022/07/09 12:10:56;;;;;;;0.80;0.70;;;26.70;48.70;;;;;;5050684;28;20037;-68
2022/07/09 12:13:22;;;;;;;2.25;0.70;;;26.70;48.20;;;;;;5050831;28;20028;-68
2022/07/09 12:15:47;;;;;;;1.75;0.60;;;26.50;48.00;;;;;;5048179;28;20025;-68
2022/07/09 12:18:13;;;;;;;1.65;0.65;;;26.50;47.80;;;;;;5053236;28;20051;-68
2022/07/09 12:20:39;;;;;;;1.60;0.60;;;26.60;47.80;;;;;;5048574;28;20067;-68
2022/07/09 12:23:04;;;;;;;0.93;0.70;;;26.80;47.60;;;;;;5052374;28;20369;-69
2022/07/09 12:25:30;;;;;;;0.95;0.80;;;27.00;47.30;;;;;;5050590;28;20013;-68
2022/07/09 12:27:56;;;;;;;1.55;0.80;;;27.10;46.60;;;;;;5048224;28;20437;-67
2022/07/09 12:30:21;;;;;;;2.13;0.90;;;27.10;46.20;;;;;;5052562;28;20040;-67
2022/07/09 12:32:47;;;;;;;1.52;0.70;;;26.90;45.80;;;;;;5050042;28;20368;-68
2022/07/09 12:35:13;;;;;;;1.00;0.70;;;26.80;45.90;;;;;;5054218;28;20029;-68
2022/07/09 12:37:39;;;;;;;1.63;0.85;;;26.70;46.10;;;;;;5052317;28;20730;-67
2022/07/09 12:40:06;;;;;;;2.30;1.05;;;26.60;45.80;;;;;;5047920;28;20451;-68
2022/07/09 12:42:32;;;;;;;1.40;0.70;;;26.60;45.60;;;;;;5049953;28;20025;-67
2022/07/09 12:44:58;;;;;;;1.38;0.82;;;26.70;45.80;;;;;;5049420;28;20033;-67
2022/07/09 12:47:23;;;;;;;1.95;0.80;;;26.70;45.60;;;;;;5047945;28;20024;-67
2022/07/09 12:49:49;;;;;;;1.50;0.70;;;26.70;45.00;;;;;;5049095;28;20021;-68